Millville, Minnesota
Current Conditions -  °F | °C
As of 11:53 PM on Thursday 27 Nov 2014 (Local Time) from K9MN Reporting Station
Overcast Overcast  
Wind Chill:   Ceiling: 2000
Heat Index:   Visibility: 2mi
Dew Point:   Wind: 3mph
Humidity: 70%   Direction: 110°ESE
Pressure: 30.27"   Gusts: NA
Location:  44.24°N, 92.3°W
Report Text: K9MN 280553Z AUTO 11003KT 2SM SCT012 OVC020 M13/M17 A3027 RMK AO1 T11281172 11122 21153 410731180
Loading
Personal Weather Stations






























Interactive Weather Map New forecast layout! Learn more

10-Day Weather Forecast

Advertisements
Track Severe Weather on mobile